Terminal Aerodrome Forecast
Issued by NWS

Home | Current Version | Previous Version | Text Only | Print | Product List | Glossary Off
Versions: 1 2 3 4 5 6 7 8 9 10 11 12 13 14 15 16 17

580
FTUS42 KMHX 230533
TAFISO
TAF
KISO 230533Z 2306/2406 18010KT P6SM OVC250
     FM230900 18010KT P6SM VCSH OVC025
     FM231200 18015KT 6SM -SHRA OVC020
     FM231300 19015KT 6SM -SHRA OVC015
     FM231500 21015G25KT P6SM BKN015
     FM231900 23015G25KT P6SM BKN040
     FM240200 27005KT P6SM SKC
      AMD LTD TO CLD VIS AND WIND=

USA.gov is the U.S. government's official web portal to all federal, state and local government web resources and services.